Time;durP1;ratioP1;P1;durP2;ratioP2;P2;SDS_P1;SDS_P2;PMS_P1;PMS_P2;Temp;Humidity;BMP_temperature;BMP_pressure;BME280_temperature;BME280_humidity;BME280_pressure;Samples;Min_cycle;Max_cycle;Signal;HPM_P1;HPM_P2
2023/03/08 00:01:24;;;;;;;14.85;6.35;;;;;;;1.27;100.00;99610.50;5092200;28;20050;-52
2023/03/08 00:03:53;;;;;;;21.42;6.35;;;;;;;1.28;100.00;99600.91;5088219;28;20070;-51
2023/03/08 00:06:20;;;;;;;18.90;6.00;;;;;;;1.33;100.00;99601.38;5093261;28;20563;-51
2023/03/08 00:08:48;;;;;;;16.23;6.10;;;;;;;1.24;100.00;99600.31;5065778;28;20101;-52
2023/03/08 00:11:16;;;;;;;15.88;6.05;;;;;;;1.21;100.00;99602.34;5092417;28;20050;-49
2023/03/08 00:13:42;;;;;;;17.30;6.25;;;;;;;1.22;100.00;99601.38;5086151;28;20072;-52
2023/03/08 00:16:11;;;;;;;15.38;6.18;;;;;;;1.28;100.00;99593.06;5093315;28;20039;-51
2023/03/08 00:18:38;;;;;;;14.70;5.88;;;;;;;1.21;100.00;99599.72;5087951;28;20071;-51
2023/03/08 00:21:09;;;;;;;21.40;6.60;;;;;;;1.24;100.00;99596.88;5094023;28;20127;-50
2023/03/08 00:23:35;;;;;;;17.98;6.35;;;;;;;1.26;100.00;99598.41;5089097;28;20261;-49
2023/03/08 00:26:02;;;;;;;19.33;6.82;;;;;;;1.21;100.00;99600.56;5092191;28;20044;-49
2023/03/08 00:28:30;;;;;;;21.25;6.70;;;;;;;1.24;100.00;99602.13;5088439;28;20105;-53
2023/03/08 00:30:59;;;;;;;18.48;6.60;;;;;;;1.29;100.00;99597.31;5089767;28;20048;-51
2023/03/08 00:33:27;;;;;;;21.23;7.55;;;;;;;1.17;100.00;99596.53;5092591;28;20451;-50
2023/03/08 00:35:56;;;;;;;17.30;6.60;;;;;;;1.33;100.00;99602.19;5088133;28;20106;-51
2023/03/08 00:38:22;;;;;;;19.58;7.05;;;;;;;1.21;100.00;99610.19;5092986;28;20035;-50
2023/03/08 00:40:50;;;;;;;14.50;6.40;;;;;;;1.25;100.00;99607.19;5088048;28;20485;-52
2023/03/08 00:43:17;;;;;;;22.55;6.97;;;;;;;1.26;100.00;99602.81;5092642;28;20101;-49
2023/03/08 00:45:43;;;;;;;18.20;6.88;;;;;;;1.26;100.00;99605.44;5088131;28;20109;-50
2023/03/08 00:48:10;;;;;;;18.95;6.78;;;;;;;1.20;100.00;99598.06;5089225;28;20054;-54
2023/03/08 00:50:37;;;;;;;16.52;7.13;;;;;;;1.29;100.00;99595.56;5093078;28;20044;-53
2023/03/08 00:53:04;;;;;;;24.30;6.75;;;;;;;1.33;100.00;99604.81;5084978;28;20086;-50
2023/03/08 00:55:31;;;;;;;19.40;6.50;;;;;;;1.40;100.00;99605.16;5091258;28;20540;-53
2023/03/08 00:57:58;;;;;;;15.38;6.70;;;;;;;1.47;100.00;99595.03;5087154;28;20044;-53
2023/03/08 01:00:24;;;;;;;19.02;6.95;;;;;;;1.52;100.00;99585.84;5091236;28;20046;-50
2023/03/08 01:02:54;;;;;;;14.70;6.43;;;;;;;1.56;100.00;99589.06;5084668;28;20044;-51
2023/03/08 01:05:21;;;;;;;14.70;7.10;;;;;;;1.57;100.00;99584.69;5076010;28;20072;-53
2023/03/08 01:07:47;;;;;;;17.58;6.65;;;;;;;1.62;100.00;99582.50;5087640;28;20055;-53
2023/03/08 01:10:14;;;;;;;17.17;6.38;;;;;;;1.64;100.00;99573.59;5092082;28;20040;-52
2023/03/08 01:12:41;;;;;;;17.65;6.22;;;;;;;1.61;100.00;99571.22;5088424;28;20058;-51
2023/03/08 01:15:08;;;;;;;17.67;6.30;;;;;;;1.64;100.00;99568.34;5092426;28;20051;-50
2023/03/08 01:17:35;;;;;;;13.60;6.10;;;;;;;1.71;100.00;99560.81;5087475;28;20098;-52
2023/03/08 01:20:03;;;;;;;18.80;6.70;;;;;;;1.69;100.00;99555.75;5091383;28;20040;-50
2023/03/08 01:22:30;;;;;;;17.40;6.40;;;;;;;1.71;100.00;99553.84;5096471;28;20459;-53
2023/03/08 01:24:57;;;;;;;16.10;6.43;;;;;;;1.70;100.00;99549.53;5091552;28;20062;-52
2023/03/08 01:27:26;;;;;;;15.77;6.40;;;;;;;1.75;100.00;99546.56;5096294;28;20048;-50
2023/03/08 01:29:53;;;;;;;14.82;6.85;;;;;;;1.69;100.00;99555.75;5091451;28;20051;-51
2023/03/08 01:32:19;;;;;;;15.18;5.93;;;;;;;1.73;100.00;99554.53;5096651;28;20512;-52
2023/03/08 01:34:46;;;;;;;16.63;6.40;;;;;;;1.72;100.00;99552.84;5091422;28;20044;-50
2023/03/08 01:37:13;;;;;;;16.90;6.88;;;;;;;1.70;100.00;99554.78;5092441;28;20105;-52
2023/03/08 01:39:41;;;;;;;15.05;6.75;;;;;;;1.73;100.00;99546.69;5096315;28;20051;-52
2023/03/08 01:42:08;;;;;;;16.42;6.50;;;;;;;1.68;100.00;99548.84;5091209;28;20131;-52
2023/03/08 01:44:55;;;;;;;15.68;6.78;;;;;;;1.61;100.00;99532.00;5095144;28;20048;-52
2023/03/08 01:47:28;;;;;;;14.13;6.25;;;;;;;1.64;100.00;99534.38;5091453;28;20052;-53
2023/03/08 01:50:14;;;;;;;;;;;;;;;1.57;100.00;99529.78;5093334;28;20040;-51
2023/03/08 01:52:47;;;;;;;19.13;7.20;;;;;;;1.68;100.00;99529.72;5091038;28;20293;-52
2023/03/08 01:55:15;;;;;;;18.63;7.95;;;;;;;1.69;100.00;99526.13;5096398;28;20048;-50
2023/03/08 01:57:46;;;;;;;19.88;7.78;;;;;;;1.65;100.00;99524.72;5090901;28;20055;-51
2023/03/08 02:00:18;;;;;;;19.00;7.93;;;;;;;1.63;100.00;99517.00;5093906;28;20413;-53
2023/03/08 02:02:53;;;;;;;18.63;7.57;;;;;;;1.66;100.00;99508.09;5091873;28;20040;-53
2023/03/08 02:05:21;;;;;;;19.48;8.40;;;;;;;1.66;100.00;99501.09;5095766;28;20044;-51
2023/03/08 02:07:51;;;;;;;16.42;7.72;;;;;;;1.66;100.00;99495.03;5085951;28;20059;-51
2023/03/08 02:10:18;;;;;;;17.55;7.50;;;;;;;1.67;100.00;99494.91;5095455;28;20068;-51
2023/03/08 02:12:46;;;;;;;17.30;8.30;;;;;;;1.65;100.00;99480.28;5091143;28;20048;-50
2023/03/08 02:15:18;;;;;;;19.65;7.68;;;;;;;1.65;100.00;99488.94;5095686;28;20397;-52
2023/03/08 02:17:49;;;;;;;18.38;7.50;;;;;;;1.73;100.00;99493.56;5090492;28;20047;-53
2023/03/08 02:20:23;;;;;;;19.25;8.43;;;;;;;1.62;100.00;99491.84;5095236;28;20036;-52
2023/03/08 02:22:52;;;;;;;16.80;7.30;;;;;;;1.70;100.00;99480.75;5091155;28;20089;-50
2023/03/08 02:25:22;;;;;;;16.85;8.57;;;;;;;1.54;100.00;99486.41;5091513;28;20099;-51
2023/03/08 02:27:50;;;;;;;18.48;7.95;;;;;;;1.59;100.00;99483.44;5094578;28;20441;-50
2023/03/08 02:30:23;;;;;;;17.02;7.40;;;;;;;1.61;100.00;99492.78;5090199;28;20071;-51
2023/03/08 02:32:51;;;;;;;18.30;8.55;;;;;;;1.58;100.00;99495.66;5095534;28;20562;-49
2023/03/08 02:35:18;;;;;;;15.98;7.45;;;;;;;1.47;100.00;99491.28;5089903;28;20067;-53
2023/03/08 02:37:45;;;;;;;18.52;8.00;;;;;;;1.29;100.00;99488.44;5095017;28;20052;-51
2023/03/08 02:40:12;;;;;;;17.30;7.57;;;;;;;1.37;100.00;99481.75;5090498;28;20429;-53
2023/03/08 02:42:39;;;;;;;18.02;6.95;;;;;;;1.32;100.00;99489.94;5090808;28;20139;-53
2023/03/08 02:45:06;;;;;;;15.07;7.43;;;;;;;1.41;100.00;99473.53;5094958;28;20074;-50
2023/03/08 02:47:33;;;;;;;15.40;6.90;;;;;;;1.44;100.00;99464.63;5090589;28;20070;-49
2023/03/08 02:50:00;;;;;;;16.83;7.43;;;;;;;1.45;100.00;99461.84;5095008;28;20047;-52
2023/03/08 02:52:26;;;;;;;19.33;7.63;;;;;;;1.49;100.00;99463.28;5090322;28;20454;-52
2023/03/08 02:54:53;;;;;;;21.38;7.95;;;;;;;1.50;100.00;99464.09;5067048;28;20048;-50
2023/03/08 02:57:21;;;;;;;18.45;8.02;;;;;;;1.31;100.00;99456.94;5069308;28;20060;-49
2023/03/08 02:59:49;;;;;;;18.70;7.97;;;;;;;1.31;100.00;99459.53;5069984;28;20041;-52
2023/03/08 03:02:16;;;;;;;18.15;8.27;;;;;;;1.27;100.00;99452.91;5074612;28;20063;-50
2023/03/08 03:04:43;;;;;;;20.27;8.27;;;;;;;1.34;100.00;99456.69;5069674;28;20052;-51
2023/03/08 03:07:10;;;;;;;18.63;8.57;;;;;;;1.25;100.00;99452.22;5089657;28;20150;-52
2023/03/08 03:09:37;;;;;;;18.10;8.43;;;;;;;1.32;100.00;99456.81;5090030;28;20149;-50
2023/03/08 03:12:04;;;;;;;20.00;8.05;;;;;;;1.30;100.00;99440.44;5094169;28;20531;-51
2023/03/08 03:14:33;;;;;;;20.33;8.27;;;;;;;1.40;100.00;99439.66;5086765;28;20062;-49
2023/03/08 03:17:01;;;;;;;17.60;8.20;;;;;;;1.36;100.00;99435.66;5094180;28;20406;-50
2023/03/08 03:19:27;;;;;;;22.33;8.50;;;;;;;1.42;100.00;99427.31;5089308;28;20645;-51
2023/03/08 03:21:54;;;;;;;21.25;8.68;;;;;;;1.38;100.00;99426.72;5094847;28;20039;-50
2023/03/08 03:24:21;;;;;;;23.13;8.85;;;;;;;1.46;100.00;99426.13;5089260;28;20602;-49
2023/03/08 03:26:54;;;;;;;18.42;8.52;;;;;;;1.45;100.00;99427.88;5093260;28;20048;-50
2023/03/08 03:29:23;;;;;;;20.67;9.30;;;;;;;1.40;100.00;99422.22;5090057;28;20522;-51
2023/03/08 03:31:56;;;;;;;18.35;9.13;;;;;;;1.51;100.00;99411.69;5090638;28;20048;-50
2023/03/08 03:34:23;;;;;;;19.92;8.82;;;;;;;1.36;100.00;99405.13;5093594;28;20048;-52
2023/03/08 03:36:50;;;;;;;20.25;8.80;;;;;;;1.26;100.00;99399.84;5089619;28;20048;-49
2023/03/08 03:39:17;;;;;;;19.42;8.55;;;;;;;1.40;100.00;99411.78;5094077;28;20044;-49
2023/03/08 03:41:46;;;;;;;21.20;8.70;;;;;;;1.39;100.00;99409.28;5087317;28;20073;-49
2023/03/08 03:44:14;;;;;;;21.20;9.18;;;;;;;1.49;100.00;99412.75;5094566;28;20477;-51
2023/03/08 03:46:43;;;;;;;22.65;8.88;;;;;;;1.49;100.00;99405.78;5085969;28;20036;-50
2023/03/08 03:49:12;;;;;;;20.45;9.30;;;;;;;1.53;100.00;99399.31;5092952;28;20063;-50
2023/03/08 03:51:42;;;;;;;20.38;8.85;;;;;;;1.54;100.00;99398.34;5089253;28;20043;-49
2023/03/08 03:54:14;;;;;;;22.17;9.68;;;;;;;1.60;100.00;99406.63;5094163;28;20068;-50
2023/03/08 03:56:43;;;;;;;22.88;10.00;;;;;;;1.61;100.00;99395.25;5088069;28;20047;-50
2023/03/08 03:59:09;;;;;;;22.73;10.43;;;;;;;1.56;100.00;99402.63;5093311;28;20048;-50
2023/03/08 04:01:36;;;;;;;25.40;9.90;;;;;;;1.57;100.00;99401.69;5088650;28;20233;-50
2023/03/08 04:04:12;;;;;;;25.23;10.02;;;;;;;1.55;100.00;99388.75;5089951;28;20048;-52
2023/03/08 04:06:41;;;;;;;23.58;9.93;;;;;;;1.52;100.00;99378.53;5092661;28;20087;-50
2023/03/08 04:09:14;;;;;;;22.40;9.65;;;;;;;1.45;100.00;99383.44;5089115;28;20040;-52
2023/03/08 04:11:44;;;;;;;22.42;9.68;;;;;;;1.52;100.00;99384.59;5092601;28;20109;-52
2023/03/08 04:14:16;;;;;;;23.55;10.52;;;;;;;1.42;100.00;99372.41;5088950;28;20054;-50
2023/03/08 04:16:43;;;;;;;23.52;10.30;;;;;;;1.40;100.00;99369.97;5093069;28;20497;-50
2023/03/08 04:19:22;;;;;;;23.02;9.45;;;;;;;1.47;100.00;99370.25;5085100;28;20056;-52
2023/03/08 04:21:52;;;;;;;26.83;10.43;;;;;;;1.38;100.00;99365.81;5093686;28;20040;-50
2023/03/08 04:24:22;;;;;;;24.30;9.73;;;;;;;1.44;100.00;99366.13;5088111;28;20052;-51
2023/03/08 04:26:52;;;;;;;27.23;10.50;;;;;;;1.43;100.00;99359.22;5092545;28;20048;-50
2023/03/08 04:29:20;;;;;;;25.70;10.18;;;;;;;1.37;100.00;99356.31;5088948;28;20044;-53
2023/03/08 04:31:47;;;;;;;25.33;9.55;;;;;;;1.42;100.00;99356.75;5092331;28;20048;-49
2023/03/08 04:34:17;;;;;;;21.50;9.20;;;;;;;1.42;100.00;99348.91;5084972;28;20143;-51
2023/03/08 04:36:46;;;;;;;21.95;9.63;;;;;;;1.38;100.00;99345.72;5093124;28;20071;-53
2023/03/08 04:39:13;;;;;;;27.45;10.20;;;;;;;1.45;100.00;99339.00;5090367;28;20481;-50
2023/03/08 04:41:40;;;;;;;31.15;10.68;;;;;;;1.44;100.00;99344.41;5090748;28;20040;-52
2023/03/08 04:44:14;;;;;;;30.45;10.52;;;;;;;1.51;100.00;99335.91;5090823;28;20174;-49
2023/03/08 04:46:46;;;;;;;26.13;11.50;;;;;;;1.47;100.00;99326.66;5092721;28;20036;-51
2023/03/08 04:49:19;;;;;;;29.27;12.05;;;;;;;1.48;100.00;99322.25;5088506;28;20040;-50
2023/03/08 04:51:51;;;;;;;30.95;13.82;;;;;;;1.45;100.00;99315.50;5089806;28;20516;-52
2023/03/08 04:54:19;;;;;;;35.42;15.15;;;;;;;1.38;100.00;99321.38;5075514;28;20650;-52
2023/03/08 04:56:52;;;;;;;33.17;15.90;;;;;;;1.45;100.00;99310.25;5086776;28;20458;-50
2023/03/08 04:59:22;;;;;;;42.10;17.93;;;;;;;1.41;100.00;99302.84;5091692;28;20531;-50
2023/03/08 05:01:50;;;;;;;41.75;17.88;;;;;;;1.44;100.00;99302.59;5086871;28;20290;-50
2023/03/08 05:04:18;;;;;;;45.40;18.50;;;;;;;1.49;100.00;99290.78;5092571;28;20051;-53
2023/03/08 05:06:45;;;;;;;38.67;17.23;;;;;;;1.48;100.00;99294.34;5084120;28;20062;-51
2023/03/08 05:09:18;;;;;;;43.42;17.98;;;;;;;1.31;100.00;99290.56;5092310;28;20517;-53
2023/03/08 05:11:48;;;;;;;46.35;18.60;;;;;;;1.36;100.00;99286.72;5088155;28;20036;-51
2023/03/08 05:14:15;;;;;;;44.13;18.80;;;;;;;1.27;100.00;99280.47;5092156;28;20504;-53
2023/03/08 05:16:42;;;;;;;46.47;18.40;;;;;;;1.39;100.00;99276.00;5087309;28;20142;-51
2023/03/08 05:19:09;;;;;;;46.65;18.83;;;;;;;1.38;100.00;99269.94;5093133;28;20120;-52
2023/03/08 05:21:44;;;;;;;45.15;17.73;;;;;;;1.20;100.00;99258.44;5087662;28;20058;-50
2023/03/08 05:24:11;;;;;;;42.17;17.48;;;;;;;1.27;100.00;99260.41;5088259;28;20098;-50
2023/03/08 05:26:38;;;;;;;42.58;18.92;;;;;;;1.29;100.00;99253.28;5092284;28;20040;-52
2023/03/08 05:29:06;;;;;;;43.00;17.02;;;;;;;1.29;100.00;99255.03;5087980;28;20119;-49
2023/03/08 05:31:36;;;;;;;34.85;16.20;;;;;;;1.31;100.00;99250.50;5091489;28;20048;-51
2023/03/08 05:34:05;;;;;;;34.97;16.17;;;;;;;1.34;100.00;99248.47;5088359;28;20123;-52
2023/03/08 05:36:35;;;;;;;38.17;16.05;;;;;;;1.32;100.00;99249.56;5092460;28;20451;-50
2023/03/08 05:39:05;;;;;;;34.22;15.10;;;;;;;1.35;100.00;99246.69;5084068;28;20079;-51
2023/03/08 05:41:47;;;;;;;33.10;15.77;;;;;;;1.27;100.00;99242.09;5092518;28;20558;-51
2023/03/08 05:44:20;;;;;;;32.20;14.80;;;;;;;1.29;100.00;99229.78;5089181;28;20052;-50
2023/03/08 05:46:50;;;;;;;28.50;13.43;;;;;;;1.08;100.00;99224.56;5091426;28;20036;-53
2023/03/08 05:49:18;;;;;;;33.58;14.02;;;;;;;0.98;100.00;99217.66;5087334;28;20237;-52
2023/03/08 05:51:45;;;;;;;30.05;13.68;;;;;;;1.00;100.00;99224.41;5090691;28;20036;-53
2023/03/08 05:54:12;;;;;;;33.38;14.15;;;;;;;0.87;100.00;99210.72;5089583;28;20040;-50
2023/03/08 05:56:40;;;;;;;26.25;13.13;;;;;;;1.01;100.00;99205.16;5086407;28;20044;-52
2023/03/08 05:59:15;;;;;;;23.80;12.05;;;;;;;0.98;100.00;99196.75;5092199;28;20048;-50
2023/03/08 06:01:42;;;;;;;27.27;12.70;;;;;;;0.95;100.00;99184.81;5086562;28;20036;-51
2023/03/08 06:04:19;;;;;;;28.90;12.02;;;;;;;1.01;100.00;99184.28;5091848;28;20054;-50
2023/03/08 06:06:48;;;;;;;30.50;12.88;;;;;;;0.85;100.00;99178.69;5090686;28;20044;-50
2023/03/08 06:09:15;;;;;;;28.25;13.15;;;;;;;0.81;100.00;99178.13;5095824;28;20048;-50
2023/03/08 06:11:42;;;;;;;30.05;12.80;;;;;;;0.95;100.00;99174.34;5087553;28;20113;-50
2023/03/08 06:14:09;;;;;;;25.60;12.15;;;;;;;0.82;100.00;99169.34;5095017;28;20048;-51
2023/03/08 06:16:38;;;;;;;31.05;12.60;;;;;;;0.89;100.00;99159.19;5091141;28;20503;-52
2023/03/08 06:19:05;;;;;;;24.27;11.57;;;;;;;0.91;100.00;99150.28;5095924;28;20053;-52
2023/03/08 06:21:34;;;;;;;21.10;9.63;;;;;;;0.82;100.00;99143.25;5090417;28;20044;-52
2023/03/08 06:24:02;;;;;;;22.23;9.98;;;;;;;0.85;100.00;99137.75;5095682;28;20510;-53
2023/03/08 06:26:29;;;;;;;27.52;11.00;;;;;;;0.90;100.00;99134.75;5091038;28;20044;-52
2023/03/08 06:28:56;;;;;;;24.83;10.85;;;;;;;0.80;100.00;99126.88;5091458;28;20047;-53
2023/03/08 06:31:27;;;;;;;24.83;10.93;;;;;;;0.75;100.00;99122.03;5094655;28;20370;-52
2023/03/08 06:33:54;;;;;;;26.55;11.35;;;;;;;0.70;100.00;99116.38;5091068;28;20566;-51
2023/03/08 06:36:24;;;;;;;24.05;10.75;;;;;;;0.73;100.00;99113.53;5094446;28;20051;-52
2023/03/08 06:38:51;;;;;;;24.35;10.30;;;;;;;0.65;100.00;99110.72;5090273;28;20093;-52
2023/03/08 06:41:19;;;;;;;23.52;10.13;;;;;;;0.69;100.00;99109.53;5095073;28;20543;-52
2023/03/08 06:43:49;;;;;;;;;;;;;;;0.67;100.00;99106.19;5088477;28;20139;-53
2023/03/08 06:46:17;;;;;;;24.35;9.82;;;;;;;0.75;100.00;99103.78;5092055;28;20018;-53
2023/03/08 06:48:45;;;;;;;25.08;10.65;;;;;;;0.75;100.00;99098.56;5094747;28;20044;-51
2023/03/08 06:51:14;;;;;;;25.60;10.77;;;;;;;0.81;100.00;99097.19;5089268;28;20029;-50
2023/03/08 06:53:43;;;;;;;24.42;10.73;;;;;;;0.87;100.00;99088.81;5094554;28;20051;-52
2023/03/08 06:56:15;;;;;;;25.40;10.32;;;;;;;0.81;100.00;99093.78;5086302;28;20028;-50
2023/03/08 06:58:42;;;;;;;24.02;10.10;;;;;;;0.79;100.00;99091.28;5092853;28;20084;-52
2023/03/08 07:01:09;;;;;;;22.95;9.82;;;;;;;0.88;100.00;99082.66;5085062;28;20074;-50
2023/03/08 07:03:36;;;;;;;26.45;9.95;;;;;;;0.92;100.00;99078.81;5093672;28;20485;-52
2023/03/08 07:06:07;;;;;;;21.70;9.45;;;;;;;0.91;100.00;99078.94;5085485;28;20070;-52
2023/03/08 07:08:35;;;;;;;23.58;9.07;;;;;;;0.95;100.00;99072.53;5094882;28;20122;-54
2023/03/08 07:11:02;;;;;;;23.90;9.65;;;;;;;0.79;100.00;99074.81;5089440;28;20036;-51
2023/03/08 07:13:29;;;;;;;22.52;9.85;;;;;;;0.90;100.00;99074.69;5093355;28;20122;-52
2023/03/08 07:15:56;;;;;;;22.70;9.00;;;;;;;1.01;100.00;99071.97;5087083;28;20493;-52
2023/03/08 07:18:24;;;;;;;23.38;9.50;;;;;;;0.91;100.00;99065.88;5094500;28;20511;-50
2023/03/08 07:20:52;;;;;;;20.17;8.45;;;;;;;0.91;100.00;99061.50;5093321;28;20040;-53
2023/03/08 07:23:19;;;;;;;22.42;8.70;;;;;;;0.76;100.00;99057.59;5090297;28;20048;-50
2023/03/08 07:25:45;;;;;;;21.60;8.63;;;;;;;0.84;100.00;99056.97;5094426;28;20075;-52
2023/03/08 07:28:12;;;;;;;24.58;9.18;;;;;;;0.73;100.00;99053.47;5088825;28;20071;-50
2023/03/08 07:30:39;;;;;;;25.70;9.35;;;;;;;0.84;100.00;99049.13;5093984;28;20497;-53
2023/03/08 07:33:06;;;;;;;24.00;10.13;;;;;;;0.70;100.00;99051.13;5086432;28;20504;-53
2023/03/08 07:35:32;;;;;;;24.27;10.32;;;;;;;0.51;100.00;99045.81;5093202;28;20566;-52
2023/03/08 07:37:59;;;;;;;25.65;10.25;;;;;;;0.65;100.00;99042.03;5093417;28;20071;-51
2023/03/08 07:40:26;;;;;;;23.15;9.88;;;;;;;0.72;100.00;99049.22;5089711;28;20044;-52
2023/03/08 07:42:52;;;;;;;30.10;10.50;;;;;;;0.49;100.00;99032.94;5093248;28;20045;-51
2023/03/08 07:45:36;;;;;;;;;;;;;;;0.46;100.00;99025.38;5090993;28;20051;-52
2023/03/08 07:48:03;;;;;;;22.55;8.52;;;;;;;0.56;100.00;99021.03;5093810;28;19920;-52
2023/03/08 07:50:30;;;;;;;21.42;8.52;;;;;;;0.65;100.00;99014.16;5086767;28;20393;-52
2023/03/08 07:52:58;;;;;;;19.13;8.55;;;;;;;0.71;100.00;99013.66;5093860;28;20493;-50
2023/03/08 07:55:26;;;;;;;21.15;8.27;;;;;;;0.82;100.00;99004.88;5088927;28;20358;-49
2023/03/08 07:57:53;;;;;;;20.70;8.35;;;;;;;0.87;100.00;99002.66;5092865;28;20520;-50
2023/03/08 08:00:19;;;;;;;17.65;8.00;;;;;;;0.77;100.00;99001.84;5084267;28;20131;-51
2023/03/08 08:02:46;;;;;;;23.52;8.88;;;;;;;0.77;100.00;98997.44;5091688;28;20036;-53
2023/03/08 08:05:13;;;;;;;20.85;8.30;;;;;;;0.72;100.00;98994.41;5087699;28;20127;-53
2023/03/08 08:07:40;;;;;;;18.80;7.78;;;;;;;0.81;100.00;99003.22;5090558;28;20069;-53
2023/03/08 08:10:07;;;;;;;22.77;8.48;;;;;;;0.79;100.00;98994.69;5093170;28;20048;-50
2023/03/08 08:12:34;;;;;;;21.88;8.52;;;;;;;0.78;100.00;98987.81;5081209;28;20036;-51
2023/03/08 08:15:01;;;;;;;22.15;9.05;;;;;;;0.82;100.00;98985.75;5090237;28;20044;-52
2023/03/08 08:17:28;;;;;;;25.95;9.05;;;;;;;0.97;100.00;98986.22;5084235;28;20123;-53
2023/03/08 08:19:54;;;;;;;22.98;9.23;;;;;;;0.92;100.00;98990.03;5089433;28;20587;-50
2023/03/08 08:22:21;;;;;;;21.95;8.38;;;;;;;0.85;100.00;98968.03;5089163;28;20131;-54
2023/03/08 08:24:48;;;;;;;24.27;8.93;;;;;;;0.93;100.00;98965.59;5090465;28;20044;-52
2023/03/08 08:27:15;;;;;;;22.88;9.73;;;;;;;0.89;100.00;98961.63;5081620;28;20038;-50
2023/03/08 08:29:44;;;;;;;23.98;10.02;;;;;;;0.91;100.00;98962.28;5068460;28;20044;-49
2023/03/08 08:32:11;;;;;;;23.55;9.43;;;;;;;0.92;100.00;98961.31;5066541;28;20041;-51
2023/03/08 08:34:38;;;;;;;21.92;9.60;;;;;;;1.00;100.00;98946.75;5072592;28;20045;-52
2023/03/08 08:37:04;;;;;;;22.60;9.05;;;;;;;0.94;100.00;98941.13;5072420;28;20051;-52
2023/03/08 08:39:31;;;;;;;22.77;9.70;;;;;;;0.97;100.00;98945.25;5082010;28;20071;-52
2023/03/08 08:41:58;;;;;;;22.02;10.02;;;;;;;0.99;100.00;98934.69;5092133;28;20070;-49
2023/03/08 08:44:24;;;;;;;25.92;9.05;;;;;;;1.06;100.00;98928.75;5075495;28;20085;-51
2023/03/08 08:46:51;;;;;;;24.33;10.13;;;;;;;1.08;100.00;98931.25;5084460;28;20048;-54
2023/03/08 08:49:18;;;;;;;23.92;8.82;;;;;;;1.09;100.00;98931.13;5089172;28;20074;-54
2023/03/08 08:51:45;;;;;;;26.00;10.57;;;;;;;1.11;100.00;98923.13;5091507;28;20051;-49
2023/03/08 08:54:12;;;;;;;27.00;8.60;;;;;;;1.19;100.00;98918.03;5079977;28;20072;-49
2023/03/08 08:56:41;;;;;;;18.77;8.77;;;;;;;1.09;100.00;98920.66;5080597;28;20119;-50
2023/03/08 08:59:10;;;;;;;21.00;8.55;;;;;;;1.02;100.00;98906.50;5095160;28;20040;-49
2023/03/08 09:01:42;;;;;;;20.42;9.32;;;;;;;1.13;100.00;98908.16;5082758;28;20044;-51
2023/03/08 09:04:12;;;;;;;19.08;8.40;;;;;;;1.18;100.00;98907.72;5091467;28;20048;-52
2023/03/08 09:06:39;;;;;;;22.02;8.98;;;;;;;1.14;100.00;98887.09;5086843;28;20046;-52
2023/03/08 09:09:05;;;;;;;19.83;8.82;;;;;;;0.95;100.00;98879.28;5084805;28;20456;-51
2023/03/08 09:11:33;;;;;;;16.58;7.90;;;;;;;1.06;100.00;98880.94;5051266;28;20405;-52
2023/03/08 09:14:05;;;;;;;19.25;8.73;;;;;;;1.21;100.00;98889.16;5087574;28;20044;-51
2023/03/08 09:16:33;;;;;;;19.38;8.38;;;;;;;1.22;100.00;98888.19;5079861;28;20386;-49
2023/03/08 09:19:02;;;;;;;17.58;8.25;;;;;;;1.28;100.00;98893.69;5085068;28;20066;-52
2023/03/08 09:21:30;;;;;;;18.95;8.30;;;;;;;1.21;100.00;98890.00;5083273;28;20486;-51
2023/03/08 09:24:00;;;;;;;18.95;7.97;;;;;;;1.31;100.00;98879.50;5099134;28;20515;-50
2023/03/08 09:26:29;;;;;;;17.70;8.52;;;;;;;1.39;100.00;98868.38;5098916;28;20051;-52
2023/03/08 09:28:57;;;;;;;20.35;8.68;;;;;;;1.36;100.00;98871.28;5079278;28;20052;-51
2023/03/08 09:31:24;;;;;;;23.40;8.57;;;;;;;1.45;100.00;98867.81;5071947;28;20036;-51
2023/03/08 09:33:51;;;;;;;20.08;9.10;;;;;;;1.54;100.00;98856.50;5089687;28;20069;-49
2023/03/08 09:36:19;;;;;;;19.38;9.00;;;;;;;1.59;100.00;98853.47;5087318;28;20382;-49
2023/03/08 09:38:47;;;;;;;21.42;9.07;;;;;;;1.67;100.00;98854.41;5092170;28;20056;-49
2023/03/08 09:41:45;;;;;;;21.10;9.57;;;;;;;1.71;100.00;98863.59;5090730;28;20044;-51
2023/03/08 09:44:47;;;;;;;23.83;9.15;;;;;;;1.77;100.00;98866.63;5094731;28;20047;-51
2023/03/08 09:47:50;;;;;;;22.70;9.48;;;;;;;1.90;100.00;98861.88;5071171;28;20067;-57
2023/03/08 09:50:29;;;;;;;19.63;9.07;;;;;;;1.88;100.00;98856.78;5104102;28;20072;-57
2023/03/08 09:53:38;;;;;;;20.05;9.98;;;;;;;1.96;100.00;98850.00;5113633;28;20093;-57
2023/03/08 09:56:18;;;;;;;21.60;10.75;;;;;;;2.00;100.00;98848.75;5084504;28;20055;-56
2023/03/08 09:58:53;;;;;;;22.85;10.55;;;;;;;1.91;100.00;98851.28;5094983;28;20062;-57
2023/03/08 10:01:48;;;;;;;23.05;10.02;;;;;;;1.96;100.00;98850.00;5072619;28;20094;-57
2023/03/08 10:04:48;;;;;;;18.85;9.90;;;;;;;1.92;100.00;98847.69;5070694;28;20047;-57
2023/03/08 10:07:26;;;;;;;25.77;10.27;;;;;;;2.02;100.00;98841.56;5087241;28;20040;-57
2023/03/08 10:10:14;;;;;;;20.35;9.80;;;;;;;2.03;100.00;98843.25;5093936;28;20040;-57
2023/03/08 10:15:21;;;;;;;20.75;10.32;;;;;;;1.97;100.00;98841.22;5045090;28;20142;-56
2023/03/08 10:17:55;;;;;;;25.00;11.27;;;;;;;2.08;100.00;98828.75;5018957;28;20052;-56
2023/03/08 10:20:26;;;;;;;23.05;11.50;;;;;;;2.23;100.00;98828.25;5045000;28;20874;-57
2023/03/08 10:23:12;;;;;;;26.27;11.05;;;;;;;2.33;100.00;98829.03;5040698;28;20446;-57
2023/03/08 10:25:39;;;;;;;24.48;10.68;;;;;;;2.38;100.00;98829.38;5044340;28;20040;-58
2023/03/08 10:28:14;;;;;;;24.77;11.23;;;;;;;2.35;100.00;98834.09;5038891;28;20092;-57
2023/03/08 10:30:51;;;;;;;23.58;11.10;;;;;;;2.08;100.00;98828.75;5048064;28;20057;-57
2023/03/08 10:33:20;;;;;;;21.45;10.38;;;;;;;2.33;100.00;98836.03;5022129;28;20033;-48
2023/03/08 10:36:15;;;;;;;22.80;10.57;;;;;;;2.47;100.00;98828.50;5049386;28;20037;-48
2023/03/08 10:38:54;;;;;;;24.08;11.15;;;;;;;2.60;100.00;98828.16;5009821;28;20045;-56
2023/03/08 10:41:21;;;;;;;27.52;11.48;;;;;;;2.62;100.00;98810.50;5048671;28;20459;-57
2023/03/08 10:43:51;;;;;;;25.33;11.68;;;;;;;2.64;100.00;98813.78;5041224;28;20064;-57
2023/03/08 10:46:22;;;;;;;21.80;11.48;;;;;;;2.70;100.00;98809.72;5047801;28;20033;-57
2023/03/08 10:48:50;;;;;;;22.02;11.70;;;;;;;2.55;100.00;98811.22;5040222;28;20045;-57
2023/03/08 10:51:24;;;;;;;26.88;12.18;;;;;;;2.63;100.00;98799.03;5040860;28;20141;-57
2023/03/08 10:53:57;;;;;;;22.77;11.88;;;;;;;2.80;100.00;98789.53;5026805;28;20598;-56
2023/03/08 10:56:35;;;;;;;22.38;11.90;;;;;;;2.92;100.00;98786.66;5040843;28;20041;-58
2023/03/08 10:59:04;;;;;;;26.13;12.35;;;;;;;3.04;100.00;98774.97;5027407;28;20041;-56
2023/03/08 11:01:34;;;;;;;28.13;12.48;;;;;;;2.85;100.00;98776.78;5039860;28;20436;-56
2023/03/08 11:04:05;;;;;;;25.13;12.20;;;;;;;2.85;100.00;98786.44;5039902;28;20045;-56
2023/03/08 11:06:34;;;;;;;26.00;12.30;;;;;;;3.03;99.62;98778.56;5013762;28;20049;-56
2023/03/08 11:09:03;;;;;;;21.42;11.90;;;;;;;2.99;100.00;98764.94;5039398;28;20654;-56
2023/03/08 11:11:40;;;;;;;30.52;13.15;;;;;;;2.93;100.00;98772.56;5033091;28;20298;-56
2023/03/08 11:14:10;;;;;;;25.40;12.30;;;;;;;2.80;100.00;98783.44;5042544;28;20518;-56
2023/03/08 11:19:41;;;;;;;29.00;13.50;;;;;;;2.96;100.00;98794.03;5068693;27;20401;-56
2023/03/08 11:22:48;;;;;;;35.35;14.10;;;;;;;3.11;100.00;98791.72;5064248;28;20098;-56
2023/03/08 11:25:39;;;;;;;28.80;14.60;;;;;;;3.19;100.00;98780.47;5104346;28;20089;-56
2023/03/08 11:31:18;;;;;;;27.15;14.38;;;;;;;3.24;100.00;98778.19;5105875;27;20347;-56
2023/03/08 11:36:35;;;;;;;28.48;15.20;;;;;;;3.30;100.00;98756.59;5093240;27;20339;-58
2023/03/08 11:39:18;;;;;;;32.10;16.17;;;;;;;3.36;100.00;98763.84;5093798;28;20040;-56
2023/03/08 11:42:18;;;;;;;30.45;15.30;;;;;;;3.37;100.00;98775.97;5071279;28;20074;-56
2023/03/08 11:44:58;;;;;;;29.20;16.25;;;;;;;3.21;100.00;98770.63;5095335;28;20045;-56
2023/03/08 11:48:05;;;;;;;28.95;16.27;;;;;;;3.36;100.00;98779.56;5078434;28;20135;-56